sensor_id;sensor_type;location;lat;lon;timestamp;P1;durP1;ratioP1;P2;durP2;ratioP2
19907;SDS011;10116;53.112;7.356;2022-07-24T00:02:01;1.10;;;1.10;;
19907;SDS011;10116;53.112;7.356;2022-07-24T00:04:27;1.47;;;0.93;;
19907;SDS011;10116;53.112;7.356;2022-07-24T00:06:52;1.57;;;0.90;;
19907;SDS011;10116;53.112;7.356;2022-07-24T00:09:18;1.70;;;1.03;;
19907;SDS011;10116;53.112;7.356;2022-07-24T00:11:43;1.37;;;1.23;;
19907;SDS011;10116;53.112;7.356;2022-07-24T00:14:09;1.70;;;1.03;;
19907;SDS011;10116;53.112;7.356;2022-07-24T00:16:35;1.20;;;1.17;;
19907;SDS011;10116;53.112;7.356;2022-07-24T00:19:01;1.93;;;0.97;;
19907;SDS011;10116;53.112;7.356;2022-07-24T00:21:26;1.33;;;1.23;;
19907;SDS011;10116;53.112;7.356;2022-07-24T00:23:52;1.27;;;1.17;;
19907;SDS011;10116;53.112;7.356;2022-07-24T00:26:18;0.90;;;0.90;;
19907;SDS011;10116;53.112;7.356;2022-07-24T00:28:44;1.20;;;1.10;;
19907;SDS011;10116;53.112;7.356;2022-07-24T00:31:10;2.93;;;0.90;;
19907;SDS011;10116;53.112;7.356;2022-07-24T00:33:35;0.70;;;0.70;;
19907;SDS011;10116;53.112;7.356;2022-07-24T00:36:01;0.93;;;0.93;;
19907;SDS011;10116;53.112;7.356;2022-07-24T00:38:27;1.20;;;1.10;;
19907;SDS011;10116;53.112;7.356;2022-07-24T00:40:53;0.93;;;0.93;;
19907;SDS011;10116;53.112;7.356;2022-07-24T00:43:18;1.90;;;1.00;;
19907;SDS011;10116;53.112;7.356;2022-07-24T00:45:44;0.83;;;0.83;;
19907;SDS011;10116;53.112;7.356;2022-07-24T00:48:10;2.80;;;0.93;;
19907;SDS011;10116;53.112;7.356;2022-07-24T00:50:36;1.07;;;1.07;;
19907;SDS011;10116;53.112;7.356;2022-07-24T00:53:02;1.00;;;1.00;;
19907;SDS011;10116;53.112;7.356;2022-07-24T00:55:28;1.80;;;1.20;;
19907;SDS011;10116;53.112;7.356;2022-07-24T00:57:54;1.33;;;1.23;;
19907;SDS011;10116;53.112;7.356;2022-07-24T01:00:20;1.10;;;1.00;;
19907;SDS011;10116;53.112;7.356;2022-07-24T01:02:47;1.20;;;1.10;;
19907;SDS011;10116;53.112;7.356;2022-07-24T01:05:13;1.13;;;1.13;;
19907;SDS011;10116;53.112;7.356;2022-07-24T01:07:39;1.30;;;1.00;;
19907;SDS011;10116;53.112;7.356;2022-07-24T01:10:05;1.97;;;1.00;;
19907;SDS011;10116;53.112;7.356;2022-07-24T01:12:32;0.97;;;0.97;;
19907;SDS011;10116;53.112;7.356;2022-07-24T01:14:58;1.10;;;1.00;;
19907;SDS011;10116;53.112;7.356;2022-07-24T01:17:28;1.23;;;1.10;;
19907;SDS011;10116;53.112;7.356;2022-07-24T01:19:58;1.57;;;1.30;;
19907;SDS011;10116;53.112;7.356;2022-07-24T01:22:25;2.47;;;1.00;;
19907;SDS011;10116;53.112;7.356;2022-07-24T01:24:51;1.50;;;1.00;;
19907;SDS011;10116;53.112;7.356;2022-07-24T01:27:17;1.37;;;1.27;;
19907;SDS011;10116;53.112;7.356;2022-07-24T01:29:42;1.20;;;1.10;;
19907;SDS011;10116;53.112;7.356;2022-07-24T01:32:08;1.20;;;1.10;;
19907;SDS011;10116;53.112;7.356;2022-07-24T01:34:34;1.27;;;1.10;;
19907;SDS011;10116;53.112;7.356;2022-07-24T01:37:00;1.60;;;1.50;;
19907;SDS011;10116;53.112;7.356;2022-07-24T01:39:25;0.90;;;0.90;;
19907;SDS011;10116;53.112;7.356;2022-07-24T01:41:51;0.97;;;0.97;;
19907;SDS011;10116;53.112;7.356;2022-07-24T01:44:16;1.50;;;1.40;;
19907;SDS011;10116;53.112;7.356;2022-07-24T01:46:51;1.30;;;1.20;;
19907;SDS011;10116;53.112;7.356;2022-07-24T01:49:18;1.83;;;1.23;;
19907;SDS011;10116;53.112;7.356;2022-07-24T01:51:44;1.67;;;1.30;;
19907;SDS011;10116;53.112;7.356;2022-07-24T01:54:10;1.40;;;1.30;;
19907;SDS011;10116;53.112;7.356;2022-07-24T01:56:35;0.97;;;0.87;;
19907;SDS011;10116;53.112;7.356;2022-07-24T01:59:01;1.40;;;1.30;;
19907;SDS011;10116;53.112;7.356;2022-07-24T02:01:27;1.87;;;1.07;;
19907;SDS011;10116;53.112;7.356;2022-07-24T02:03:54;1.27;;;1.03;;
19907;SDS011;10116;53.112;7.356;2022-07-24T02:06:20;1.37;;;1.27;;
19907;SDS011;10116;53.112;7.356;2022-07-24T02:08:45;1.10;;;1.03;;
19907;SDS011;10116;53.112;7.356;2022-07-24T02:11:11;1.20;;;1.10;;
19907;SDS011;10116;53.112;7.356;2022-07-24T02:13:37;1.20;;;1.10;;
19907;SDS011;10116;53.112;7.356;2022-07-24T02:16:02;0.90;;;0.90;;
19907;SDS011;10116;53.112;7.356;2022-07-24T02:18:28;1.07;;;1.07;;
19907;SDS011;10116;53.112;7.356;2022-07-24T02:20:54;5.53;;;1.27;;
19907;SDS011;10116;53.112;7.356;2022-07-24T02:23:19;0.83;;;0.83;;
19907;SDS011;10116;53.112;7.356;2022-07-24T02:25:46;1.10;;;1.10;;
19907;SDS011;10116;53.112;7.356;2022-07-24T02:28:12;1.50;;;1.40;;
19907;SDS011;10116;53.112;7.356;2022-07-24T02:30:39;1.50;;;1.40;;
19907;SDS011;10116;53.112;7.356;2022-07-24T02:33:05;0.90;;;0.90;;
19907;SDS011;10116;53.112;7.356;2022-07-24T02:35:31;1.30;;;1.20;;
19907;SDS011;10116;53.112;7.356;2022-07-24T02:37:56;1.03;;;1.03;;
19907;SDS011;10116;53.112;7.356;2022-07-24T02:40:22;1.07;;;1.07;;
19907;SDS011;10116;53.112;7.356;2022-07-24T02:42:48;1.30;;;1.20;;
19907;SDS011;10116;53.112;7.356;2022-07-24T02:45:13;1.10;;;1.10;;
19907;SDS011;10116;53.112;7.356;2022-07-24T02:47:49;1.20;;;1.20;;
19907;SDS011;10116;53.112;7.356;2022-07-24T02:50:23;1.57;;;1.47;;
19907;SDS011;10116;53.112;7.356;2022-07-24T02:52:50;1.20;;;1.10;;
19907;SDS011;10116;53.112;7.356;2022-07-24T02:55:16;1.63;;;1.20;;
19907;SDS011;10116;53.112;7.356;2022-07-24T02:57:42;1.30;;;1.20;;
19907;SDS011;10116;53.112;7.356;2022-07-24T03:00:10;1.03;;;1.03;;
19907;SDS011;10116;53.112;7.356;2022-07-24T03:02:37;1.93;;;1.10;;
19907;SDS011;10116;53.112;7.356;2022-07-24T03:05:03;1.20;;;1.13;;
19907;SDS011;10116;53.112;7.356;2022-07-24T03:07:30;1.13;;;1.13;;
19907;SDS011;10116;53.112;7.356;2022-07-24T03:09:56;1.03;;;1.03;;
19907;SDS011;10116;53.112;7.356;2022-07-24T03:12:21;1.10;;;1.10;;
19907;SDS011;10116;53.112;7.356;2022-07-24T03:14:47;1.30;;;1.20;;
19907;SDS011;10116;53.112;7.356;2022-07-24T03:17:13;1.20;;;1.20;;
19907;SDS011;10116;53.112;7.356;2022-07-24T03:19:38;1.30;;;1.17;;
19907;SDS011;10116;53.112;7.356;2022-07-24T03:22:04;1.10;;;1.10;;
19907;SDS011;10116;53.112;7.356;2022-07-24T03:24:29;1.00;;;1.00;;
19907;SDS011;10116;53.112;7.356;2022-07-24T03:26:55;1.33;;;1.03;;
19907;SDS011;10116;53.112;7.356;2022-07-24T03:29:21;1.10;;;1.10;;
19907;SDS011;10116;53.112;7.356;2022-07-24T03:31:46;1.60;;;1.50;;
19907;SDS011;10116;53.112;7.356;2022-07-24T03:34:12;1.20;;;1.10;;
19907;SDS011;10116;53.112;7.356;2022-07-24T03:36:38;1.60;;;1.43;;
19907;SDS011;10116;53.112;7.356;2022-07-24T03:39:04;1.40;;;1.30;;
19907;SDS011;10116;53.112;7.356;2022-07-24T03:41:30;1.10;;;1.10;;
19907;SDS011;10116;53.112;7.356;2022-07-24T03:43:56;1.10;;;1.10;;
19907;SDS011;10116;53.112;7.356;2022-07-24T03:46:22;2.20;;;1.40;;
19907;SDS011;10116;53.112;7.356;2022-07-24T03:48:48;1.20;;;1.10;;
19907;SDS011;10116;53.112;7.356;2022-07-24T03:51:14;1.10;;;1.00;;
19907;SDS011;10116;53.112;7.356;2022-07-24T03:53:39;1.20;;;1.20;;
19907;SDS011;10116;53.112;7.356;2022-07-24T03:56:06;0.80;;;0.80;;
19907;SDS011;10116;53.112;7.356;2022-07-24T03:58:32;1.00;;;1.00;;
19907;SDS011;10116;53.112;7.356;2022-07-24T04:00:58;1.17;;;1.17;;
19907;SDS011;10116;53.112;7.356;2022-07-24T04:03:24;1.20;;;1.00;;
19907;SDS011;10116;53.112;7.356;2022-07-24T04:05:49;1.10;;;1.10;;
19907;SDS011;10116;53.112;7.356;2022-07-24T04:08:15;1.70;;;1.40;;
19907;SDS011;10116;53.112;7.356;2022-07-24T04:10:41;1.47;;;1.00;;
19907;SDS011;10116;53.112;7.356;2022-07-24T04:13:06;2.00;;;1.20;;
19907;SDS011;10116;53.112;7.356;2022-07-24T04:15:32;1.17;;;1.03;;
19907;SDS011;10116;53.112;7.356;2022-07-24T04:17:58;1.83;;;1.10;;
19907;SDS011;10116;53.112;7.356;2022-07-24T04:20:24;1.20;;;1.20;;
19907;SDS011;10116;53.112;7.356;2022-07-24T04:22:49;1.17;;;1.17;;
19907;SDS011;10116;53.112;7.356;2022-07-24T04:25:15;0.80;;;0.80;;
19907;SDS011;10116;53.112;7.356;2022-07-24T04:27:40;1.17;;;1.10;;
19907;SDS011;10116;53.112;7.356;2022-07-24T04:30:08;1.30;;;1.20;;
19907;SDS011;10116;53.112;7.356;2022-07-24T04:32:35;1.23;;;1.07;;
19907;SDS011;10116;53.112;7.356;2022-07-24T04:35:01;1.40;;;1.40;;
19907;SDS011;10116;53.112;7.356;2022-07-24T04:37:27;1.23;;;1.23;;
19907;SDS011;10116;53.112;7.356;2022-07-24T04:39:52;1.20;;;1.20;;
19907;SDS011;10116;53.112;7.356;2022-07-24T04:42:18;1.20;;;1.20;;
19907;SDS011;10116;53.112;7.356;2022-07-24T04:44:43;0.90;;;0.90;;
19907;SDS011;10116;53.112;7.356;2022-07-24T04:47:09;1.43;;;1.33;;
19907;SDS011;10116;53.112;7.356;2022-07-24T04:49:34;2.80;;;1.03;;
19907;SDS011;10116;53.112;7.356;2022-07-24T04:52:00;2.50;;;1.47;;
19907;SDS011;10116;53.112;7.356;2022-07-24T04:54:26;0.97;;;0.97;;
19907;SDS011;10116;53.112;7.356;2022-07-24T04:56:51;1.20;;;1.10;;
19907;SDS011;10116;53.112;7.356;2022-07-24T04:59:17;1.00;;;1.00;;
19907;SDS011;10116;53.112;7.356;2022-07-24T05:01:42;0.93;;;0.83;;
19907;SDS011;10116;53.112;7.356;2022-07-24T05:04:08;1.03;;;1.03;;
19907;SDS011;10116;53.112;7.356;2022-07-24T05:06:33;1.10;;;1.10;;
19907;SDS011;10116;53.112;7.356;2022-07-24T05:08:59;0.97;;;0.97;;
19907;SDS011;10116;53.112;7.356;2022-07-24T05:11:25;1.33;;;1.30;;
19907;SDS011;10116;53.112;7.356;2022-07-24T05:13:50;1.27;;;1.20;;
19907;SDS011;10116;53.112;7.356;2022-07-24T05:16:16;0.90;;;0.90;;
19907;SDS011;10116;53.112;7.356;2022-07-24T05:18:42;1.07;;;1.07;;
19907;SDS011;10116;53.112;7.356;2022-07-24T05:21:07;1.20;;;1.10;;
19907;SDS011;10116;53.112;7.356;2022-07-24T05:23:33;0.93;;;0.93;;
19907;SDS011;10116;53.112;7.356;2022-07-24T05:25:59;1.10;;;1.10;;
19907;SDS011;10116;53.112;7.356;2022-07-24T05:28:24;1.10;;;1.10;;
19907;SDS011;10116;53.112;7.356;2022-07-24T05:30:50;2.00;;;1.30;;
19907;SDS011;10116;53.112;7.356;2022-07-24T05:33:15;1.17;;;1.07;;
19907;SDS011;10116;53.112;7.356;2022-07-24T05:35:41;1.20;;;1.13;;
19907;SDS011;10116;53.112;7.356;2022-07-24T05:38:07;1.00;;;1.00;;
19907;SDS011;10116;53.112;7.356;2022-07-24T05:40:32;1.23;;;1.23;;
19907;SDS011;10116;53.112;7.356;2022-07-24T05:42:58;1.10;;;1.10;;
19907;SDS011;10116;53.112;7.356;2022-07-24T05:45:24;1.07;;;1.07;;
19907;SDS011;10116;53.112;7.356;2022-07-24T05:47:49;1.00;;;0.90;;
19907;SDS011;10116;53.112;7.356;2022-07-24T05:50:15;1.00;;;1.00;;
19907;SDS011;10116;53.112;7.356;2022-07-24T05:52:41;1.07;;;1.07;;
19907;SDS011;10116;53.112;7.356;2022-07-24T05:55:07;1.03;;;1.03;;
19907;SDS011;10116;53.112;7.356;2022-07-24T05:57:33;0.97;;;0.97;;
19907;SDS011;10116;53.112;7.356;2022-07-24T05:59:59;1.13;;;1.03;;
19907;SDS011;10116;53.112;7.356;2022-07-24T06:02:25;1.10;;;1.00;;
19907;SDS011;10116;53.112;7.356;2022-07-24T06:04:50;1.10;;;1.10;;
19907;SDS011;10116;53.112;7.356;2022-07-24T06:07:16;1.37;;;1.37;;
19907;SDS011;10116;53.112;7.356;2022-07-24T06:09:42;1.00;;;1.00;;
19907;SDS011;10116;53.112;7.356;2022-07-24T06:12:08;1.10;;;1.10;;
19907;SDS011;10116;53.112;7.356;2022-07-24T06:14:33;1.17;;;1.17;;
19907;SDS011;10116;53.112;7.356;2022-07-24T06:16:59;1.00;;;1.00;;
19907;SDS011;10116;53.112;7.356;2022-07-24T06:19:25;1.30;;;1.20;;
19907;SDS011;10116;53.112;7.356;2022-07-24T06:21:51;1.43;;;1.33;;
19907;SDS011;10116;53.112;7.356;2022-07-24T06:24:16;0.97;;;0.97;;
19907;SDS011;10116;53.112;7.356;2022-07-24T06:26:42;1.30;;;1.20;;
19907;SDS011;10116;53.112;7.356;2022-07-24T06:29:08;1.10;;;1.00;;
19907;SDS011;10116;53.112;7.356;2022-07-24T06:31:33;1.03;;;1.03;;
19907;SDS011;10116;53.112;7.356;2022-07-24T06:33:59;1.10;;;1.10;;
19907;SDS011;10116;53.112;7.356;2022-07-24T06:36:25;1.40;;;1.40;;
19907;SDS011;10116;53.112;7.356;2022-07-24T06:38:50;1.57;;;1.47;;
19907;SDS011;10116;53.112;7.356;2022-07-24T06:41:16;1.20;;;1.20;;
19907;SDS011;10116;53.112;7.356;2022-07-24T06:43:42;1.20;;;1.20;;
19907;SDS011;10116;53.112;7.356;2022-07-24T06:46:08;1.00;;;1.00;;
19907;SDS011;10116;53.112;7.356;2022-07-24T06:48:33;1.47;;;1.37;;
19907;SDS011;10116;53.112;7.356;2022-07-24T06:50:59;1.40;;;1.30;;
19907;SDS011;10116;53.112;7.356;2022-07-24T06:53:25;1.20;;;1.20;;
19907;SDS011;10116;53.112;7.356;2022-07-24T06:55:50;1.27;;;1.13;;
19907;SDS011;10116;53.112;7.356;2022-07-24T06:58:19;1.07;;;1.07;;
19907;SDS011;10116;53.112;7.356;2022-07-24T07:00:45;1.60;;;1.50;;
19907;SDS011;10116;53.112;7.356;2022-07-24T07:03:11;1.83;;;1.30;;
19907;SDS011;10116;53.112;7.356;2022-07-24T07:05:37;1.30;;;1.30;;
19907;SDS011;10116;53.112;7.356;2022-07-24T07:08:03;1.33;;;1.30;;
19907;SDS011;10116;53.112;7.356;2022-07-24T07:10:29;1.67;;;1.30;;
19907;SDS011;10116;53.112;7.356;2022-07-24T07:12:54;1.20;;;1.20;;
19907;SDS011;10116;53.112;7.356;2022-07-24T07:15:20;1.40;;;1.40;;
19907;SDS011;10116;53.112;7.356;2022-07-24T07:17:46;1.37;;;1.37;;
19907;SDS011;10116;53.112;7.356;2022-07-24T07:20:12;1.30;;;1.30;;
19907;SDS011;10116;53.112;7.356;2022-07-24T07:22:38;1.30;;;1.30;;
19907;SDS011;10116;53.112;7.356;2022-07-24T07:25:05;1.50;;;1.50;;
19907;SDS011;10116;53.112;7.356;2022-07-24T07:27:31;1.27;;;1.27;;
19907;SDS011;10116;53.112;7.356;2022-07-24T07:29:57;1.90;;;1.80;;
19907;SDS011;10116;53.112;7.356;2022-07-24T07:32:22;3.77;;;1.50;;
19907;SDS011;10116;53.112;7.356;2022-07-24T07:34:48;1.50;;;1.40;;
19907;SDS011;10116;53.112;7.356;2022-07-24T07:37:13;1.63;;;1.57;;
19907;SDS011;10116;53.112;7.356;2022-07-24T07:39:39;1.50;;;1.40;;
19907;SDS011;10116;53.112;7.356;2022-07-24T07:42:05;1.70;;;1.60;;
19907;SDS011;10116;53.112;7.356;2022-07-24T07:44:30;1.73;;;1.73;;
19907;SDS011;10116;53.112;7.356;2022-07-24T07:49:27;2.00;;;1.90;;
19907;SDS011;10116;53.112;7.356;2022-07-24T07:51:53;1.40;;;1.40;;
19907;SDS011;10116;53.112;7.356;2022-07-24T07:54:18;4.50;;;2.03;;
19907;SDS011;10116;53.112;7.356;2022-07-24T07:56:44;2.27;;;1.60;;
19907;SDS011;10116;53.112;7.356;2022-07-24T07:59:10;1.60;;;1.60;;
19907;SDS011;10116;53.112;7.356;2022-07-24T08:01:35;2.20;;;2.10;;
19907;SDS011;10116;53.112;7.356;2022-07-24T08:04:02;2.10;;;2.00;;
19907;SDS011;10116;53.112;7.356;2022-07-24T08:06:28;2.07;;;1.97;;
19907;SDS011;10116;53.112;7.356;2022-07-24T08:08:54;2.07;;;1.97;;
19907;SDS011;10116;53.112;7.356;2022-07-24T08:11:19;1.83;;;1.73;;
19907;SDS011;10116;53.112;7.356;2022-07-24T08:13:45;2.40;;;2.17;;
19907;SDS011;10116;53.112;7.356;2022-07-24T08:16:11;1.90;;;1.87;;
19907;SDS011;10116;53.112;7.356;2022-07-24T08:18:37;1.63;;;1.63;;
19907;SDS011;10116;53.112;7.356;2022-07-24T08:21:03;2.40;;;1.80;;
19907;SDS011;10116;53.112;7.356;2022-07-24T08:23:29;1.90;;;1.90;;
19907;SDS011;10116;53.112;7.356;2022-07-24T08:25:55;1.90;;;1.87;;
19907;SDS011;10116;53.112;7.356;2022-07-24T08:28:20;2.07;;;2.03;;
19907;SDS011;10116;53.112;7.356;2022-07-24T08:30:47;2.50;;;2.40;;
19907;SDS011;10116;53.112;7.356;2022-07-24T08:33:16;2.13;;;2.13;;
19907;SDS011;10116;53.112;7.356;2022-07-24T08:35:42;3.70;;;2.67;;
19907;SDS011;10116;53.112;7.356;2022-07-24T08:38:07;2.23;;;2.10;;
19907;SDS011;10116;53.112;7.356;2022-07-24T08:40:33;2.10;;;2.07;;
19907;SDS011;10116;53.112;7.356;2022-07-24T08:43:00;2.90;;;2.70;;
19907;SDS011;10116;53.112;7.356;2022-07-24T08:45:27;2.50;;;2.40;;
19907;SDS011;10116;53.112;7.356;2022-07-24T08:47:53;3.03;;;2.13;;
19907;SDS011;10116;53.112;7.356;2022-07-24T08:50:21;2.40;;;2.30;;
19907;SDS011;10116;53.112;7.356;2022-07-24T08:52:47;3.00;;;2.83;;
19907;SDS011;10116;53.112;7.356;2022-07-24T08:55:13;2.87;;;2.67;;
19907;SDS011;10116;53.112;7.356;2022-07-24T08:57:40;2.30;;;2.20;;
19907;SDS011;10116;53.112;7.356;2022-07-24T09:00:05;2.87;;;2.77;;
19907;SDS011;10116;53.112;7.356;2022-07-24T09:02:31;2.30;;;2.20;;
19907;SDS011;10116;53.112;7.356;2022-07-24T09:04:58;3.10;;;2.90;;
19907;SDS011;10116;53.112;7.356;2022-07-24T09:07:26;2.60;;;2.50;;
19907;SDS011;10116;53.112;7.356;2022-07-24T09:10:09;3.00;;;2.70;;
19907;SDS011;10116;53.112;7.356;2022-07-24T09:12:37;3.63;;;3.33;;
19907;SDS011;10116;53.112;7.356;2022-07-24T09:15:15;2.60;;;2.40;;
19907;SDS011;10116;53.112;7.356;2022-07-24T09:20:19;2.80;;;2.70;;
19907;SDS011;10116;53.112;7.356;2022-07-24T09:22:45;2.60;;;2.50;;
19907;SDS011;10116;53.112;7.356;2022-07-24T09:25:15;3.07;;;2.90;;
19907;SDS011;10116;53.112;7.356;2022-07-24T09:27:48;3.13;;;2.93;;
19907;SDS011;10116;53.112;7.356;2022-07-24T09:30:23;2.80;;;2.67;;
19907;SDS011;10116;53.112;7.356;2022-07-24T09:32:52;3.07;;;2.87;;
19907;SDS011;10116;53.112;7.356;2022-07-24T09:35:29;2.67;;;2.57;;
19907;SDS011;10116;53.112;7.356;2022-07-24T09:37:58;4.10;;;2.87;;
19907;SDS011;10116;53.112;7.356;2022-07-24T09:40:29;3.07;;;2.97;;
19907;SDS011;10116;53.112;7.356;2022-07-24T09:48:16;4.70;;;2.47;;
19907;SDS011;10116;53.112;7.356;2022-07-24T09:50:55;3.23;;;3.13;;
19907;SDS011;10116;53.112;7.356;2022-07-24T09:53:24;3.03;;;2.93;;
19907;SDS011;10116;53.112;7.356;2022-07-24T09:58:31;3.60;;;3.10;;
19907;SDS011;10116;53.112;7.356;2022-07-24T10:00:59;3.17;;;2.97;;
19907;SDS011;10116;53.112;7.356;2022-07-24T10:03:27;2.90;;;2.80;;
19907;SDS011;10116;53.112;7.356;2022-07-24T10:06:01;3.93;;;2.63;;
19907;SDS011;10116;53.112;7.356;2022-07-24T10:08:29;2.67;;;2.57;;
19907;SDS011;10116;53.112;7.356;2022-07-24T10:10:57;3.00;;;2.90;;
19907;SDS011;10116;53.112;7.356;2022-07-24T10:13:23;3.07;;;2.87;;
19907;SDS011;10116;53.112;7.356;2022-07-24T10:15:51;2.70;;;2.50;;
19907;SDS011;10116;53.112;7.356;2022-07-24T10:26:39;4.03;;;3.73;;
19907;SDS011;10116;53.112;7.356;2022-07-24T10:29:10;3.30;;;3.00;;
19907;SDS011;10116;53.112;7.356;2022-07-24T10:31:38;6.20;;;3.70;;
19907;SDS011;10116;53.112;7.356;2022-07-24T10:34:06;3.40;;;3.20;;
19907;SDS011;10116;53.112;7.356;2022-07-24T10:36:43;2.90;;;2.70;;
19907;SDS011;10116;53.112;7.356;2022-07-24T10:39:25;3.37;;;3.17;;
19907;SDS011;10116;53.112;7.356;2022-07-24T10:42:02;3.60;;;3.30;;
19907;SDS011;10116;53.112;7.356;2022-07-24T10:44:30;3.30;;;3.10;;
19907;SDS011;10116;53.112;7.356;2022-07-24T10:46:59;3.67;;;3.37;;
19907;SDS011;10116;53.112;7.356;2022-07-24T10:49:40;5.00;;;3.10;;
19907;SDS011;10116;53.112;7.356;2022-07-24T10:52:11;2.93;;;2.83;;
19907;SDS011;10116;53.112;7.356;2022-07-24T10:54:48;2.93;;;2.83;;
19907;SDS011;10116;53.112;7.356;2022-07-24T11:03:01;2.87;;;2.77;;
19907;SDS011;10116;53.112;7.356;2022-07-24T11:05:29;3.37;;;3.07;;
19907;SDS011;10116;53.112;7.356;2022-07-24T11:10:59;6.67;;;2.87;;
19907;SDS011;10116;53.112;7.356;2022-07-24T11:19:23;3.23;;;3.03;;
19907;SDS011;10116;53.112;7.356;2022-07-24T11:21:31;3.00;;;2.80;;
19907;SDS011;10116;53.112;7.356;2022-07-24T11:26:40;3.20;;;2.57;;
19907;SDS011;10116;53.112;7.356;2022-07-24T11:29:17;3.00;;;2.90;;
19907;SDS011;10116;53.112;7.356;2022-07-24T11:31:57;2.73;;;2.40;;
19907;SDS011;10116;53.112;7.356;2022-07-24T11:34:31;2.67;;;2.57;;
19907;SDS011;10116;53.112;7.356;2022-07-24T11:36:58;3.00;;;2.80;;
19907;SDS011;10116;53.112;7.356;2022-07-24T11:39:37;2.60;;;2.40;;
19907;SDS011;10116;53.112;7.356;2022-07-24T11:42:05;2.40;;;2.30;;
19907;SDS011;10116;53.112;7.356;2022-07-24T11:44:39;2.70;;;2.60;;
19907;SDS011;10116;53.112;7.356;2022-07-24T11:52:35;2.83;;;2.47;;
19907;SDS011;10116;53.112;7.356;2022-07-24T11:55:07;3.13;;;2.70;;
19907;SDS011;10116;53.112;7.356;2022-07-24T11:57:38;2.97;;;2.77;;
19907;SDS011;10116;53.112;7.356;2022-07-24T12:00:06;3.10;;;2.90;;
19907;SDS011;10116;53.112;7.356;2022-07-24T12:02:36;2.80;;;2.60;;
19907;SDS011;10116;53.112;7.356;2022-07-24T12:05:12;4.73;;;2.70;;
19907;SDS011;10116;53.112;7.356;2022-07-24T12:07:38;4.43;;;2.80;;
19907;SDS011;10116;53.112;7.356;2022-07-24T12:10:03;2.53;;;2.43;;
19907;SDS011;10116;53.112;7.356;2022-07-24T12:12:31;2.70;;;2.60;;
19907;SDS011;10116;53.112;7.356;2022-07-24T12:20:33;2.47;;;2.37;;
19907;SDS011;10116;53.112;7.356;2022-07-24T12:23:01;2.23;;;2.13;;
19907;SDS011;10116;53.112;7.356;2022-07-24T12:25:29;2.40;;;2.30;;
19907;SDS011;10116;53.112;7.356;2022-07-24T12:28:05;3.00;;;2.60;;
19907;SDS011;10116;53.112;7.356;2022-07-24T12:30:33;2.30;;;2.20;;
19907;SDS011;10116;53.112;7.356;2022-07-24T12:33:07;2.90;;;2.70;;
19907;SDS011;10116;53.112;7.356;2022-07-24T12:38:33;3.83;;;2.60;;
19907;SDS011;10116;53.112;7.356;2022-07-24T12:41:07;7.60;;;2.50;;
19907;SDS011;10116;53.112;7.356;2022-07-24T12:43:49;2.33;;;2.23;;
19907;SDS011;10116;53.112;7.356;2022-07-24T12:46:32;2.70;;;2.60;;
19907;SDS011;10116;53.112;7.356;2022-07-24T12:54:18;2.60;;;2.43;;
19907;SDS011;10116;53.112;7.356;2022-07-24T12:56:49;2.23;;;2.13;;
19907;SDS011;10116;53.112;7.356;2022-07-24T13:02:04;2.80;;;2.60;;
19907;SDS011;10116;53.112;7.356;2022-07-24T13:04:40;2.80;;;2.70;;
19907;SDS011;10116;53.112;7.356;2022-07-24T13:07:07;2.60;;;2.40;;
19907;SDS011;10116;53.112;7.356;2022-07-24T13:09:34;3.20;;;2.90;;
19907;SDS011;10116;53.112;7.356;2022-07-24T13:12:00;3.40;;;2.80;;
19907;SDS011;10116;53.112;7.356;2022-07-24T13:14:26;2.63;;;2.53;;
19907;SDS011;10116;53.112;7.356;2022-07-24T13:16:53;2.30;;;2.20;;
19907;SDS011;10116;53.112;7.356;2022-07-24T13:19:20;2.77;;;2.67;;
19907;SDS011;10116;53.112;7.356;2022-07-24T13:21:46;2.70;;;2.50;;
19907;SDS011;10116;53.112;7.356;2022-07-24T13:24:14;2.57;;;2.47;;
19907;SDS011;10116;53.112;7.356;2022-07-24T13:26:41;2.80;;;2.60;;
19907;SDS011;10116;53.112;7.356;2022-07-24T13:29:07;2.60;;;2.50;;
19907;SDS011;10116;53.112;7.356;2022-07-24T13:31:34;2.80;;;2.60;;
19907;SDS011;10116;53.112;7.356;2022-07-24T13:34:00;7.03;;;2.50;;
19907;SDS011;10116;53.112;7.356;2022-07-24T13:36:26;3.90;;;2.77;;
19907;SDS011;10116;53.112;7.356;2022-07-24T13:38:52;2.83;;;2.63;;
19907;SDS011;10116;53.112;7.356;2022-07-24T13:41:18;2.90;;;2.70;;
19907;SDS011;10116;53.112;7.356;2022-07-24T13:43:46;3.10;;;2.77;;
19907;SDS011;10116;53.112;7.356;2022-07-24T13:46:13;6.73;;;2.60;;
19907;SDS011;10116;53.112;7.356;2022-07-24T13:48:39;4.77;;;2.67;;
19907;SDS011;10116;53.112;7.356;2022-07-24T13:51:05;5.07;;;2.30;;
19907;SDS011;10116;53.112;7.356;2022-07-24T13:53:30;2.60;;;2.43;;
19907;SDS011;10116;53.112;7.356;2022-07-24T13:55:56;2.85;;;2.70;;
19907;SDS011;10116;53.112;7.356;2022-07-24T13:58:22;3.00;;;2.90;;
19907;SDS011;10116;53.112;7.356;2022-07-24T14:00:47;3.10;;;2.80;;
19907;SDS011;10116;53.112;7.356;2022-07-24T14:03:13;2.80;;;2.60;;
19907;SDS011;10116;53.112;7.356;2022-07-24T14:05:39;2.90;;;2.80;;
19907;SDS011;10116;53.112;7.356;2022-07-24T14:08:05;2.77;;;2.63;;
19907;SDS011;10116;53.112;7.356;2022-07-24T14:10:31;2.67;;;2.53;;
19907;SDS011;10116;53.112;7.356;2022-07-24T14:12:57;2.83;;;2.63;;
19907;SDS011;10116;53.112;7.356;2022-07-24T14:15:23;3.10;;;2.90;;
19907;SDS011;10116;53.112;7.356;2022-07-24T14:17:48;2.70;;;2.53;;
19907;SDS011;10116;53.112;7.356;2022-07-24T14:20:14;2.77;;;2.67;;
19907;SDS011;10116;53.112;7.356;2022-07-24T14:22:41;3.10;;;2.87;;
19907;SDS011;10116;53.112;7.356;2022-07-24T14:25:07;2.50;;;2.40;;
19907;SDS011;10116;53.112;7.356;2022-07-24T14:27:33;5.13;;;2.63;;
19907;SDS011;10116;53.112;7.356;2022-07-24T14:29:59;2.87;;;2.67;;
19907;SDS011;10116;53.112;7.356;2022-07-24T14:32:25;3.43;;;3.13;;
19907;SDS011;10116;53.112;7.356;2022-07-24T14:34:51;2.47;;;2.37;;
19907;SDS011;10116;53.112;7.356;2022-07-24T14:37:17;2.77;;;2.57;;
19907;SDS011;10116;53.112;7.356;2022-07-24T14:39:43;2.63;;;2.40;;
19907;SDS011;10116;53.112;7.356;2022-07-24T14:42:09;2.70;;;2.60;;
19907;SDS011;10116;53.112;7.356;2022-07-24T14:44:34;3.13;;;2.80;;
19907;SDS011;10116;53.112;7.356;2022-07-24T14:47:00;2.67;;;2.57;;
19907;SDS011;10116;53.112;7.356;2022-07-24T14:49:26;2.53;;;2.43;;
19907;SDS011;10116;53.112;7.356;2022-07-24T14:51:52;3.05;;;2.80;;
19907;SDS011;10116;53.112;7.356;2022-07-24T14:54:18;2.80;;;2.67;;
19907;SDS011;10116;53.112;7.356;2022-07-24T14:56:43;2.67;;;2.47;;
19907;SDS011;10116;53.112;7.356;2022-07-24T14:59:09;3.30;;;3.00;;
19907;SDS011;10116;53.112;7.356;2022-07-24T15:01:35;2.63;;;2.53;;
19907;SDS011;10116;53.112;7.356;2022-07-24T15:04:00;3.80;;;2.80;;
19907;SDS011;10116;53.112;7.356;2022-07-24T15:06:27;2.30;;;2.20;;
19907;SDS011;10116;53.112;7.356;2022-07-24T15:08:53;2.73;;;2.53;;
19907;SDS011;10116;53.112;7.356;2022-07-24T15:11:19;2.40;;;2.30;;
19907;SDS011;10116;53.112;7.356;2022-07-24T15:13:50;2.60;;;2.40;;
19907;SDS011;10116;53.112;7.356;2022-07-24T15:16:19;2.90;;;2.80;;
19907;SDS011;10116;53.112;7.356;2022-07-24T15:18:45;2.63;;;2.53;;
19907;SDS011;10116;53.112;7.356;2022-07-24T15:21:10;2.93;;;2.73;;
19907;SDS011;10116;53.112;7.356;2022-07-24T15:23:36;2.80;;;2.60;;
19907;SDS011;10116;53.112;7.356;2022-07-24T15:26:02;2.47;;;2.35;;
19907;SDS011;10116;53.112;7.356;2022-07-24T15:28:28;2.93;;;2.73;;
19907;SDS011;10116;53.112;7.356;2022-07-24T15:30:54;2.40;;;2.30;;
19907;SDS011;10116;53.112;7.356;2022-07-24T15:33:19;2.80;;;2.60;;
19907;SDS011;10116;53.112;7.356;2022-07-24T15:35:45;2.43;;;2.30;;
19907;SDS011;10116;53.112;7.356;2022-07-24T15:38:11;3.07;;;2.90;;
19907;SDS011;10116;53.112;7.356;2022-07-24T15:40:38;2.67;;;2.50;;
19907;SDS011;10116;53.112;7.356;2022-07-24T15:43:06;2.50;;;2.40;;
19907;SDS011;10116;53.112;7.356;2022-07-24T15:45:32;2.60;;;2.50;;
19907;SDS011;10116;53.112;7.356;2022-07-24T15:47:58;3.37;;;2.67;;